sensor_id;sensor_type;location;lat;lon;timestamp;pressure;altitude;pressure_sealevel;temperature;humidity
69624;BME280;56843;52.020;5.670;2022-08-30T00:01:32;101963.97;;;13.22;81.26
69624;BME280;56843;52.020;5.670;2022-08-30T00:03:04;101972.00;;;13.22;81.21
69624;BME280;56843;52.020;5.670;2022-08-30T00:04:35;101961.59;;;13.21;81.00
69624;BME280;56843;52.020;5.670;2022-08-30T00:06:07;101962.69;;;13.20;81.37
69624;BME280;56843;52.020;5.670;2022-08-30T00:07:38;101960.34;;;13.18;81.56
69624;BME280;56843;52.020;5.670;2022-08-30T00:09:09;101965.97;;;13.17;81.28
69624;BME280;56843;52.020;5.670;2022-08-30T00:10:42;101959.06;;;13.16;81.68
69624;BME280;56843;52.020;5.670;2022-08-30T00:12:12;101953.69;;;13.16;81.97
69624;BME280;56843;52.020;5.670;2022-08-30T00:13:44;101960.13;;;13.15;81.58
69624;BME280;56843;52.020;5.670;2022-08-30T00:15:16;101955.09;;;13.13;81.75
69624;BME280;56843;52.020;5.670;2022-08-30T00:16:47;101963.47;;;13.12;81.85
69624;BME280;56843;52.020;5.670;2022-08-30T00:18:18;101951.16;;;13.11;82.16
69624;BME280;56843;52.020;5.670;2022-08-30T00:19:49;101948.00;;;13.09;81.98
69624;BME280;56843;52.020;5.670;2022-08-30T00:21:21;101956.34;;;13.07;82.11
69624;BME280;56843;52.020;5.670;2022-08-30T00:22:51;101952.06;;;13.06;82.13
69624;BME280;56843;52.020;5.670;2022-08-30T00:24:22;101948.13;;;13.04;82.52
69624;BME280;56843;52.020;5.670;2022-08-30T00:25:52;101943.88;;;13.03;82.33
69624;BME280;56843;52.020;5.670;2022-08-30T00:27:23;101956.00;;;13.00;82.65
69624;BME280;56843;52.020;5.670;2022-08-30T00:28:53;101950.66;;;13.00;82.38
69624;BME280;56843;52.020;5.670;2022-08-30T00:30:24;101939.44;;;12.98;82.50
69624;BME280;56843;52.020;5.670;2022-08-30T00:31:55;101938.63;;;12.98;82.78
69624;BME280;56843;52.020;5.670;2022-08-30T00:33:25;101945.13;;;12.97;83.05
69624;BME280;56843;52.020;5.670;2022-08-30T00:34:56;101940.84;;;12.96;82.90
69624;BME280;56843;52.020;5.670;2022-08-30T00:36:27;101944.13;;;12.93;82.81
69624;BME280;56843;52.020;5.670;2022-08-30T00:37:58;101939.41;;;12.90;83.01
69624;BME280;56843;52.020;5.670;2022-08-30T00:39:28;101942.38;;;12.88;83.13
69624;BME280;56843;52.020;5.670;2022-08-30T00:40:58;101945.38;;;12.87;83.15
69624;BME280;56843;52.020;5.670;2022-08-30T00:42:29;101940.34;;;12.85;82.98
69624;BME280;56843;52.020;5.670;2022-08-30T00:44:00;101937.94;;;12.84;83.22
69624;BME280;56843;52.020;5.670;2022-08-30T00:45:34;101939.88;;;12.83;83.16
69624;BME280;56843;52.020;5.670;2022-08-30T00:47:05;101939.66;;;12.80;83.24
69624;BME280;56843;52.020;5.670;2022-08-30T00:48:38;101943.44;;;12.79;83.62
69624;BME280;56843;52.020;5.670;2022-08-30T00:50:11;101939.47;;;12.76;83.50
69624;BME280;56843;52.020;5.670;2022-08-30T00:51:43;101947.84;;;12.75;83.73
69624;BME280;56843;52.020;5.670;2022-08-30T00:53:18;101945.44;;;12.73;83.75
69624;BME280;56843;52.020;5.670;2022-08-30T00:54:50;101953.00;;;12.71;83.53
69624;BME280;56843;52.020;5.670;2022-08-30T00:56:22;101957.56;;;12.71;84.02
69624;BME280;56843;52.020;5.670;2022-08-30T00:57:57;101953.94;;;12.67;83.63
69624;BME280;56843;52.020;5.670;2022-08-30T00:59:29;101947.00;;;12.66;84.12
69624;BME280;56843;52.020;5.670;2022-08-30T01:02:41;101957.25;;;12.64;83.99
69624;BME280;56843;52.020;5.670;2022-08-30T01:04:12;101959.41;;;12.62;83.95
69624;BME280;56843;52.020;5.670;2022-08-30T01:05:44;101953.28;;;12.61;84.20
69624;BME280;56843;52.020;5.670;2022-08-30T01:07:17;101954.84;;;12.62;84.17
69624;BME280;56843;52.020;5.670;2022-08-30T01:08:48;101946.03;;;12.62;84.00
69624;BME280;56843;52.020;5.670;2022-08-30T01:10:18;101953.56;;;12.60;84.30
69624;BME280;56843;52.020;5.670;2022-08-30T01:11:49;101947.44;;;12.59;84.45
69624;BME280;56843;52.020;5.670;2022-08-30T01:13:21;101953.41;;;12.56;84.13
69624;BME280;56843;52.020;5.670;2022-08-30T01:14:52;101957.19;;;12.55;84.54
69624;BME280;56843;52.020;5.670;2022-08-30T01:16:23;101952.94;;;12.54;84.36
69624;BME280;56843;52.020;5.670;2022-08-30T01:17:55;101957.19;;;12.55;84.50
69624;BME280;56843;52.020;5.670;2022-08-30T01:19:42;101962.84;;;12.53;84.45
69624;BME280;56843;52.020;5.670;2022-08-30T01:23:13;101961.88;;;12.49;84.63
69624;BME280;56843;52.020;5.670;2022-08-30T01:24:45;101972.59;;;12.49;84.40
69624;BME280;56843;52.020;5.670;2022-08-30T01:26:17;101961.56;;;12.51;84.91
69624;BME280;56843;52.020;5.670;2022-08-30T01:27:54;101958.28;;;12.54;84.77
69624;BME280;56843;52.020;5.670;2022-08-30T01:29:26;101954.81;;;12.53;84.62
69624;BME280;56843;52.020;5.670;2022-08-30T01:30:57;101968.69;;;12.55;84.94
69624;BME280;56843;52.020;5.670;2022-08-30T01:32:28;101955.63;;;12.54;84.69
69624;BME280;56843;52.020;5.670;2022-08-30T01:34:00;101959.09;;;12.54;84.87
69624;BME280;56843;52.020;5.670;2022-08-30T01:35:36;101967.63;;;12.57;85.01
69624;BME280;56843;52.020;5.670;2022-08-30T01:37:08;101966.81;;;12.56;84.67
69624;BME280;56843;52.020;5.670;2022-08-30T01:38:51;101974.06;;;12.55;84.74
69624;BME280;56843;52.020;5.670;2022-08-30T01:40:22;101968.22;;;12.53;84.89
69624;BME280;56843;52.020;5.670;2022-08-30T01:41:52;101964.44;;;12.54;84.97
69624;BME280;56843;52.020;5.670;2022-08-30T01:43:23;101958.59;;;12.52;85.09
69624;BME280;56843;52.020;5.670;2022-08-30T01:44:54;101963.66;;;12.54;85.33
69624;BME280;56843;52.020;5.670;2022-08-30T01:46:29;101959.69;;;12.51;84.99
69624;BME280;56843;52.020;5.670;2022-08-30T01:48:00;101967.25;;;12.49;85.38
69624;BME280;56843;52.020;5.670;2022-08-30T01:49:30;101971.50;;;12.50;85.62
69624;BME280;56843;52.020;5.670;2022-08-30T01:51:01;101967.25;;;12.49;85.54
69624;BME280;56843;52.020;5.670;2022-08-30T01:52:33;101969.44;;;12.47;85.56
69624;BME280;56843;52.020;5.670;2022-08-30T01:54:04;101968.66;;;12.47;85.41
69624;BME280;56843;52.020;5.670;2022-08-30T01:55:35;101967.09;;;12.46;85.67
69624;BME280;56843;52.020;5.670;2022-08-30T01:57:10;101966.28;;;12.45;85.60
69624;BME280;56843;52.020;5.670;2022-08-30T01:58:41;101975.13;;;12.46;85.38
69624;BME280;56843;52.020;5.670;2022-08-30T02:00:12;101968.97;;;12.45;85.73
69624;BME280;56843;52.020;5.670;2022-08-30T02:01:43;101965.50;;;12.45;85.65
69624;BME280;56843;52.020;5.670;2022-08-30T02:03:13;101962.50;;;12.46;85.60
69624;BME280;56843;52.020;5.670;2022-08-30T02:04:44;101966.78;;;12.47;85.63
69624;BME280;56843;52.020;5.670;2022-08-30T02:06:17;101965.66;;;12.48;85.59
69624;BME280;56843;52.020;5.670;2022-08-30T02:07:48;101964.09;;;12.47;86.04
69624;BME280;56843;52.020;5.670;2022-08-30T02:09:18;101963.28;;;12.47;85.77
69624;BME280;56843;52.020;5.670;2022-08-30T02:10:49;101962.50;;;12.46;86.01
69624;BME280;56843;52.020;5.670;2022-08-30T02:12:20;101961.41;;;12.47;85.99
69624;BME280;56843;52.020;5.670;2022-08-30T02:13:50;101969.75;;;12.46;85.67
69624;BME280;56843;52.020;5.670;2022-08-30T02:15:20;101969.25;;;12.44;85.71
69624;BME280;56843;52.020;5.670;2022-08-30T02:16:51;101963.41;;;12.42;86.18
69624;BME280;56843;52.020;5.670;2022-08-30T02:18:24;101957.56;;;12.40;85.84
69624;BME280;56843;52.020;5.670;2022-08-30T02:19:54;101960.56;;;12.38;86.30
69624;BME280;56843;52.020;5.670;2022-08-30T02:21:25;101960.56;;;12.38;86.39
69624;BME280;56843;52.020;5.670;2022-08-30T02:22:56;101958.97;;;12.37;86.58
69624;BME280;56843;52.020;5.670;2022-08-30T02:24:27;101960.09;;;12.36;86.47
69624;BME280;56843;52.020;5.670;2022-08-30T02:25:58;101960.09;;;12.36;86.48
69624;BME280;56843;52.020;5.670;2022-08-30T02:27:28;101958.81;;;12.34;86.30
69624;BME280;56843;52.020;5.670;2022-08-30T02:28:59;101958.81;;;12.34;86.62
69624;BME280;56843;52.020;5.670;2022-08-30T02:30:29;101965.75;;;12.35;86.36
69624;BME280;56843;52.020;5.670;2022-08-30T02:32:00;101967.91;;;12.33;86.50
69624;BME280;56843;52.020;5.670;2022-08-30T02:33:30;101959.13;;;12.32;86.48
69624;BME280;56843;52.020;5.670;2022-08-30T02:35:01;101968.25;;;12.31;86.78
69624;BME280;56843;52.020;5.670;2022-08-30T02:36:31;101961.00;;;12.32;86.63
69624;BME280;56843;52.020;5.670;2022-08-30T02:38:02;101956.72;;;12.31;86.26
69624;BME280;56843;52.020;5.670;2022-08-30T02:39:33;101951.19;;;12.27;86.32
69624;BME280;56843;52.020;5.670;2022-08-30T02:41:04;101954.69;;;12.28;86.79
69624;BME280;56843;52.020;5.670;2022-08-30T02:42:35;101950.09;;;12.28;86.73
69624;BME280;56843;52.020;5.670;2022-08-30T02:44:06;101952.75;;;12.28;86.67
69624;BME280;56843;52.020;5.670;2022-08-30T02:45:37;101958.44;;;12.27;86.75
69624;BME280;56843;52.020;5.670;2022-08-30T02:47:07;101950.72;;;12.25;86.74
69624;BME280;56843;52.020;5.670;2022-08-30T02:48:38;101952.91;;;12.23;86.72
69624;BME280;56843;52.020;5.670;2022-08-30T02:50:09;101946.75;;;12.23;86.71
69624;BME280;56843;52.020;5.670;2022-08-30T02:51:40;101947.34;;;12.20;86.95
69624;BME280;56843;52.020;5.670;2022-08-30T02:53:10;101951.63;;;12.21;86.77
69624;BME280;56843;52.020;5.670;2022-08-30T02:54:41;101945.47;;;12.20;87.12
69624;BME280;56843;52.020;5.670;2022-08-30T02:56:13;101956.19;;;12.20;87.04
69624;BME280;56843;52.020;5.670;2022-08-30T02:57:44;101946.88;;;12.18;87.23
69624;BME280;56843;52.020;5.670;2022-08-30T02:59:16;101945.31;;;12.17;87.06
69624;BME280;56843;52.020;5.670;2022-08-30T03:00:47;101944.50;;;12.16;87.34
69624;BME280;56843;52.020;5.670;2022-08-30T03:02:17;101945.59;;;12.15;87.41
69624;BME280;56843;52.020;5.670;2022-08-30T03:03:48;101937.06;;;12.13;87.42
69624;BME280;56843;52.020;5.670;2022-08-30T03:05:19;101943.81;;;12.11;87.40
69624;BME280;56843;52.020;5.670;2022-08-30T03:06:50;101939.25;;;12.11;87.08
69624;BME280;56843;52.020;5.670;2022-08-30T03:08:20;101936.91;;;12.10;87.57
69624;BME280;56843;52.020;5.670;2022-08-30T03:09:51;101931.38;;;12.06;87.37
69624;BME280;56843;52.020;5.670;2022-08-30T03:11:22;101939.41;;;12.06;87.56
69624;BME280;56843;52.020;5.670;2022-08-30T03:12:54;101937.81;;;12.05;87.48
69624;BME280;56843;52.020;5.670;2022-08-30T03:14:24;101935.13;;;12.05;87.30
69624;BME280;56843;52.020;5.670;2022-08-30T03:15:55;101928.19;;;12.04;87.38
69624;BME280;56843;52.020;5.670;2022-08-30T03:17:26;101930.59;;;12.06;87.74
69624;BME280;56843;52.020;5.670;2022-08-30T03:18:56;101935.13;;;12.05;87.63
69624;BME280;56843;52.020;5.670;2022-08-30T03:20:27;101932.78;;;12.04;87.56
69624;BME280;56843;52.020;5.670;2022-08-30T03:21:58;101930.38;;;12.02;87.87
69624;BME280;56843;52.020;5.670;2022-08-30T03:23:29;101929.59;;;12.02;87.63
69624;BME280;56843;52.020;5.670;2022-08-30T03:25:01;101930.88;;;12.04;87.95
69624;BME280;56843;52.020;5.670;2022-08-30T03:26:31;101932.16;;;12.07;87.92
69624;BME280;56843;52.020;5.670;2022-08-30T03:28:02;101920.94;;;12.05;88.00
69624;BME280;56843;52.020;5.670;2022-08-30T03:29:33;101929.78;;;12.05;87.89
69624;BME280;56843;52.020;5.670;2022-08-30T03:31:04;101924.75;;;12.04;88.09
69624;BME280;56843;52.020;5.670;2022-08-30T03:32:34;101931.97;;;12.03;88.04
69624;BME280;56843;52.020;5.670;2022-08-30T03:34:05;101937.34;;;12.03;87.70
69624;BME280;56843;52.020;5.670;2022-08-30T03:35:35;101934.66;;;12.03;87.86
69624;BME280;56843;52.020;5.670;2022-08-30T03:37:06;101934.16;;;12.01;88.04
69624;BME280;56843;52.020;5.670;2022-08-30T03:38:37;101933.38;;;12.01;87.91
69624;BME280;56843;52.020;5.670;2022-08-30T03:40:09;101927.22;;;12.00;88.21
69624;BME280;56843;52.020;5.670;2022-08-30T03:41:40;101931.00;;;11.99;88.31
69624;BME280;56843;52.020;5.670;2022-08-30T03:43:10;101936.06;;;12.01;88.30
69624;BME280;56843;52.020;5.670;2022-08-30T03:44:41;101928.31;;;11.99;88.39
69624;BME280;56843;52.020;5.670;2022-08-30T03:46:12;101933.97;;;11.98;88.34
69624;BME280;56843;52.020;5.670;2022-08-30T03:47:43;101935.56;;;11.99;88.25
69624;BME280;56843;52.020;5.670;2022-08-30T03:49:14;101924.84;;;11.99;88.34
69624;BME280;56843;52.020;5.670;2022-08-30T03:50:45;101929.72;;;11.97;88.35
69624;BME280;56843;52.020;5.670;2022-08-30T03:52:16;101930.03;;;11.95;88.26
69624;BME280;56843;52.020;5.670;2022-08-30T03:53:46;101935.69;;;11.94;87.92
69624;BME280;56843;52.020;5.670;2022-08-30T03:55:17;101934.88;;;11.93;88.61
69624;BME280;56843;52.020;5.670;2022-08-30T03:56:48;101929.84;;;11.92;88.37
69624;BME280;56843;52.020;5.670;2022-08-30T03:58:18;101929.03;;;11.91;88.47
69624;BME280;56843;52.020;5.670;2022-08-30T03:59:48;101936.78;;;11.93;88.46
69624;BME280;56843;52.020;5.670;2022-08-30T04:01:19;101929.03;;;11.91;88.21
69624;BME280;56843;52.020;5.670;2022-08-30T04:02:49;101936.31;;;11.91;88.46
69624;BME280;56843;52.020;5.670;2022-08-30T04:04:20;101936.31;;;11.91;88.61
69624;BME280;56843;52.020;5.670;2022-08-30T04:05:52;101940.06;;;11.90;88.62
69624;BME280;56843;52.020;5.670;2022-08-30T04:07:23;101935.00;;;11.88;88.65
69624;BME280;56843;52.020;5.670;2022-08-30T04:08:53;101939.56;;;11.88;88.34
69624;BME280;56843;52.020;5.670;2022-08-30T04:10:24;101940.16;;;11.85;88.42
69624;BME280;56843;52.020;5.670;2022-08-30T04:11:55;101946.31;;;11.85;88.67
69624;BME280;56843;52.020;5.670;2022-08-30T04:13:26;101942.06;;;11.84;88.52
69624;BME280;56843;52.020;5.670;2022-08-30T04:14:56;101939.41;;;11.84;88.72
69624;BME280;56843;52.020;5.670;2022-08-30T04:16:27;101940.16;;;11.85;88.69
69624;BME280;56843;52.020;5.670;2022-08-30T04:17:57;101941.28;;;11.84;89.29
69624;BME280;56843;52.020;5.670;2022-08-30T04:19:28;101930.84;;;11.82;88.79
69624;BME280;56843;52.020;5.670;2022-08-30T04:20:58;101930.84;;;11.82;88.91
69624;BME280;56843;52.020;5.670;2022-08-30T04:22:29;101935.44;;;11.82;88.72
69624;BME280;56843;52.020;5.670;2022-08-30T04:23:59;101938.41;;;11.80;88.82
69624;BME280;56843;52.020;5.670;2022-08-30T04:25:30;101937.63;;;11.79;88.97
69624;BME280;56843;52.020;5.670;2022-08-30T04:27:00;101936.03;;;11.78;88.82
69624;BME280;56843;52.020;5.670;2022-08-30T04:28:30;101939.03;;;11.77;89.05
69624;BME280;56843;52.020;5.670;2022-08-30T04:30:03;101937.91;;;11.78;89.16
69624;BME280;56843;52.020;5.670;2022-08-30T04:31:34;101935.22;;;11.78;88.82
69624;BME280;56843;52.020;5.670;2022-08-30T04:33:05;101940.59;;;11.78;89.11
69624;BME280;56843;52.020;5.670;2022-08-30T04:34:36;101947.06;;;11.77;88.97
69624;BME280;56843;52.020;5.670;2022-08-30T04:36:07;101950.50;;;11.77;89.15
69624;BME280;56843;52.020;5.670;2022-08-30T04:37:38;101948.13;;;11.76;89.13
69624;BME280;56843;52.020;5.670;2022-08-30T04:39:08;101955.84;;;11.77;89.18
69624;BME280;56843;52.020;5.670;2022-08-30T04:40:43;101953.47;;;11.76;89.22
69624;BME280;56843;52.020;5.670;2022-08-30T04:42:14;101955.34;;;11.75;89.00
69624;BME280;56843;52.020;5.670;2022-08-30T04:43:46;101953.47;;;11.76;89.02
69624;BME280;56843;52.020;5.670;2022-08-30T04:45:20;101952.19;;;11.73;89.11
69624;BME280;56843;52.020;5.670;2022-08-30T04:46:50;101961.03;;;11.74;89.23
69624;BME280;56843;52.020;5.670;2022-08-30T04:48:21;101953.00;;;11.74;88.99
69624;BME280;56843;52.020;5.670;2022-08-30T04:49:52;101957.25;;;11.75;88.95
69624;BME280;56843;52.020;5.670;2022-08-30T04:51:22;101947.66;;;11.74;89.04
69624;BME280;56843;52.020;5.670;2022-08-30T04:52:53;101959.94;;;11.75;88.73
69624;BME280;56843;52.020;5.670;2022-08-30T04:54:23;101948.44;;;11.74;88.78
69624;BME280;56843;52.020;5.670;2022-08-30T04:55:54;101948.44;;;11.74;88.98
69624;BME280;56843;52.020;5.670;2022-08-30T04:57:25;101953.16;;;11.77;88.84
69624;BME280;56843;52.020;5.670;2022-08-30T04:58:56;101957.44;;;11.78;89.05
69624;BME280;56843;52.020;5.670;2022-08-30T05:00:27;101959.03;;;11.79;88.94
69624;BME280;56843;52.020;5.670;2022-08-30T05:01:58;101970.22;;;11.82;89.04
69624;BME280;56843;52.020;5.670;2022-08-30T05:03:29;101962.22;;;11.82;88.95
69624;BME280;56843;52.020;5.670;2022-08-30T05:05:00;101962.69;;;11.84;88.83
69624;BME280;56843;52.020;5.670;2022-08-30T05:06:49;101965.38;;;11.84;89.15
69624;BME280;56843;52.020;5.670;2022-08-30T05:08:21;101970.09;;;11.87;88.61
69624;BME280;56843;52.020;5.670;2022-08-30T05:09:51;101967.91;;;11.89;88.89
69624;BME280;56843;52.020;5.670;2022-08-30T05:11:23;101969.50;;;11.90;88.36
69624;BME280;56843;52.020;5.670;2022-08-30T05:12:53;101974.06;;;11.89;88.60
69624;BME280;56843;52.020;5.670;2022-08-30T05:14:24;101975.84;;;11.94;88.81
69624;BME280;56843;52.020;5.670;2022-08-30T05:15:54;101983.06;;;11.93;88.43
69624;BME280;56843;52.020;5.670;2022-08-30T05:17:25;101978.22;;;11.95;88.48
69624;BME280;56843;52.020;5.670;2022-08-30T05:18:55;101977.91;;;11.97;88.26
69624;BME280;56843;52.020;5.670;2022-08-30T05:20:27;101976.31;;;11.96;88.19
69624;BME280;56843;52.020;5.670;2022-08-30T05:21:58;101973.03;;;11.99;88.37
69624;BME280;56843;52.020;5.670;2022-08-30T05:23:28;101986.13;;;12.00;88.11
69624;BME280;56843;52.020;5.670;2022-08-30T05:24:59;101989.28;;;12.02;88.29
69624;BME280;56843;52.020;5.670;2022-08-30T05:26:32;101982.53;;;12.05;88.07
69624;BME280;56843;52.020;5.670;2022-08-30T05:28:03;101983.03;;;12.07;88.11
69624;BME280;56843;52.020;5.670;2022-08-30T05:29:35;101985.41;;;12.08;87.83
69624;BME280;56843;52.020;5.670;2022-08-30T05:31:21;101997.38;;;12.11;87.68
69624;BME280;56843;52.020;5.670;2022-08-30T05:32:52;101992.81;;;12.11;87.91
69624;BME280;56843;52.020;5.670;2022-08-30T05:34:24;101987.94;;;12.13;87.78
69624;BME280;56843;52.020;5.670;2022-08-30T05:35:54;101984.69;;;12.16;87.78
69624;BME280;56843;52.020;5.670;2022-08-30T05:37:25;101995.88;;;12.18;87.34
69624;BME280;56843;52.020;5.670;2022-08-30T05:38:56;101988.81;;;12.22;87.44
69624;BME280;56843;52.020;5.670;2022-08-30T05:40:27;101994.38;;;12.26;87.64
69624;BME280;56843;52.020;5.670;2022-08-30T05:41:58;101991.38;;;12.27;87.41
69624;BME280;56843;52.020;5.670;2022-08-30T05:43:28;101990.78;;;12.30;87.23
69624;BME280;56843;52.020;5.670;2022-08-30T05:44:59;101999.28;;;12.32;87.21
69624;BME280;56843;52.020;5.670;2022-08-30T05:46:30;101993.31;;;12.35;86.90
69624;BME280;56843;52.020;5.670;2022-08-30T05:48:04;101984.19;;;12.36;86.97
69624;BME280;56843;52.020;5.670;2022-08-30T05:49:34;101983.56;;;12.39;86.81
69624;BME280;56843;52.020;5.670;2022-08-30T05:51:12;101980.28;;;12.42;86.69
69624;BME280;56843;52.020;5.670;2022-08-30T05:52:43;101984.25;;;12.45;86.69
69624;BME280;56843;52.020;5.670;2022-08-30T05:54:15;101984.41;;;12.48;86.53
69624;BME280;56843;52.020;5.670;2022-08-30T05:55:46;101989.97;;;12.52;86.30
69624;BME280;56843;52.020;5.670;2022-08-30T05:57:17;101990.44;;;12.54;86.20
69624;BME280;56843;52.020;5.670;2022-08-30T05:58:47;101994.09;;;12.58;86.11
69624;BME280;56843;52.020;5.670;2022-08-30T06:00:18;101995.53;;;12.64;86.04
69624;BME280;56843;52.020;5.670;2022-08-30T06:01:48;102003.47;;;12.69;86.07
69624;BME280;56843;52.020;5.670;2022-08-30T06:03:19;101997.50;;;12.72;85.90
69624;BME280;56843;52.020;5.670;2022-08-30T06:04:49;101994.66;;;12.77;85.51
69624;BME280;56843;52.020;5.670;2022-08-30T06:06:20;101998.03;;;12.83;85.65
69624;BME280;56843;52.020;5.670;2022-08-30T06:07:51;102011.31;;;12.88;85.43
69624;BME280;56843;52.020;5.670;2022-08-30T06:09:21;102002.34;;;12.92;85.26
69624;BME280;56843;52.020;5.670;2022-08-30T06:10:52;102003.78;;;12.98;84.93
69624;BME280;56843;52.020;5.670;2022-08-30T06:12:22;102008.22;;;13.03;85.09
69624;BME280;56843;52.020;5.670;2022-08-30T06:13:54;101998.94;;;13.09;84.79
69624;BME280;56843;52.020;5.670;2022-08-30T06:15:24;102004.19;;;13.14;84.60
69624;BME280;56843;52.020;5.670;2022-08-30T06:16:55;102004.81;;;13.19;84.49
69624;BME280;56843;52.020;5.670;2022-08-30T06:18:25;102000.41;;;13.23;84.20
69624;BME280;56843;52.020;5.670;2022-08-30T06:19:55;101996.03;;;13.27;83.95
69624;BME280;56843;52.020;5.670;2022-08-30T06:21:29;102000.47;;;13.32;84.14
69624;BME280;56843;52.020;5.670;2022-08-30T06:22:59;101996.03;;;13.36;83.77
69624;BME280;56843;52.020;5.670;2022-08-30T06:24:30;101990.22;;;13.43;83.45
69624;BME280;56843;52.020;5.670;2022-08-30T06:26:05;101980.91;;;13.49;83.31
69624;BME280;56843;52.020;5.670;2022-08-30T06:27:35;101997.66;;;13.54;83.28
69624;BME280;56843;52.020;5.670;2022-08-30T06:29:07;102000.19;;;13.59;83.22
69624;BME280;56843;52.020;5.670;2022-08-30T06:30:40;101998.94;;;13.65;82.87
69624;BME280;56843;52.020;5.670;2022-08-30T06:32:11;102004.47;;;13.69;82.35
69624;BME280;56843;52.020;5.670;2022-08-30T06:33:41;102006.22;;;13.73;82.50
69624;BME280;56843;52.020;5.670;2022-08-30T06:35:12;101998.78;;;13.79;82.09
69624;BME280;56843;52.020;5.670;2022-08-30T06:36:43;102004.00;;;13.84;82.30
69624;BME280;56843;52.020;5.670;2022-08-30T06:38:13;102007.34;;;13.89;81.77
69624;BME280;56843;52.020;5.670;2022-08-30T06:39:43;102011.81;;;13.94;81.56
69624;BME280;56843;52.020;5.670;2022-08-30T06:41:16;102010.06;;;13.98;81.67
69624;BME280;56843;52.020;5.670;2022-08-30T06:42:48;102009.91;;;14.03;81.00
69624;BME280;56843;52.020;5.670;2022-08-30T06:44:21;102009.09;;;14.11;81.00
69624;BME280;56843;52.020;5.670;2022-08-30T06:45:51;101997.41;;;14.16;80.88
69624;BME280;56843;52.020;5.670;2022-08-30T06:47:22;102001.97;;;14.24;80.45
69624;BME280;56843;52.020;5.670;2022-08-30T06:48:54;101998.00;;;14.30;79.99
69624;BME280;56843;52.020;5.670;2022-08-30T06:50:25;102008.44;;;14.40;79.74
69624;BME280;56843;52.020;5.670;2022-08-30T06:51:55;102004.94;;;14.48;79.45
69624;BME280;56843;52.020;5.670;2022-08-30T06:53:26;102010.81;;;14.58;79.37
69624;BME280;56843;52.020;5.670;2022-08-30T06:55:00;102013.47;;;14.67;78.65
69624;BME280;56843;52.020;5.670;2022-08-30T06:56:31;102000.78;;;14.76;78.41
69624;BME280;56843;52.020;5.670;2022-08-30T06:58:02;102004.72;;;14.87;78.02
69624;BME280;56843;52.020;5.670;2022-08-30T06:59:33;102018.59;;;14.98;77.89
69624;BME280;56843;52.020;5.670;2022-08-30T07:01:05;102019.38;;;15.07;77.43
69624;BME280;56843;52.020;5.670;2022-08-30T07:02:36;102019.34;;;15.15;76.88
69624;BME280;56843;52.020;5.670;2022-08-30T07:04:07;102018.16;;;15.25;75.72
69624;BME280;56843;52.020;5.670;2022-08-30T07:05:38;102012.25;;;15.40;75.50
69624;BME280;56843;52.020;5.670;2022-08-30T07:07:09;102012.25;;;15.61;75.23
69624;BME280;56843;52.020;5.670;2022-08-30T07:08:40;102005.91;;;15.86;74.54
69624;BME280;56843;52.020;5.670;2022-08-30T07:10:10;102003.44;;;16.22;73.32
69624;BME280;56843;52.020;5.670;2022-08-30T07:11:41;102008.28;;;16.61;71.69
69624;BME280;56843;52.020;5.670;2022-08-30T07:13:11;102000.50;;;17.05;70.60
69624;BME280;56843;52.020;5.670;2022-08-30T07:14:42;101995.75;;;17.50;68.77
69624;BME280;56843;52.020;5.670;2022-08-30T07:16:13;101999.75;;;17.92;67.54
69624;BME280;56843;52.020;5.670;2022-08-30T07:17:44;102002.47;;;18.35;66.15
69624;BME280;56843;52.020;5.670;2022-08-30T07:19:32;102006.06;;;18.83;64.06
69624;BME280;56843;52.020;5.670;2022-08-30T07:21:09;101998.09;;;19.21;62.79
69624;BME280;56843;52.020;5.670;2022-08-30T07:22:39;102013.63;;;19.55;61.73
69624;BME280;56843;52.020;5.670;2022-08-30T07:24:11;102007.38;;;19.90;60.75
69624;BME280;56843;52.020;5.670;2022-08-30T07:25:42;102003.38;;;20.22;59.23
69624;BME280;56843;52.020;5.670;2022-08-30T07:27:13;102001.22;;;20.50;58.13
69624;BME280;56843;52.020;5.670;2022-08-30T07:28:45;102013.16;;;20.68;56.00
69624;BME280;56843;52.020;5.670;2022-08-30T07:30:16;102011.03;;;20.81;55.33
69624;BME280;56843;52.020;5.670;2022-08-30T07:31:47;102013.72;;;21.00;55.63
69624;BME280;56843;52.020;5.670;2022-08-30T07:33:17;102015.66;;;21.22;54.92
69624;BME280;56843;52.020;5.670;2022-08-30T07:34:48;102012.94;;;21.52;54.18
69624;BME280;56843;52.020;5.670;2022-08-30T07:36:19;102007.59;;;21.85;53.29
69624;BME280;56843;52.020;5.670;2022-08-30T07:37:51;102012.59;;;22.13;52.49
69624;BME280;56843;52.020;5.670;2022-08-30T07:39:22;102008.59;;;22.40;51.76
69624;BME280;56843;52.020;5.670;2022-08-30T07:40:53;102009.28;;;22.66;50.88
69624;BME280;56843;52.020;5.670;2022-08-30T07:42:23;102014.47;;;22.82;49.99
69624;BME280;56843;52.020;5.670;2022-08-30T07:43:54;102011.09;;;22.96;49.76
69624;BME280;56843;52.020;5.670;2022-08-30T07:45:25;102012.00;;;23.14;49.15
69624;BME280;56843;52.020;5.670;2022-08-30T07:46:56;102022.28;;;23.31;48.72
69624;BME280;56843;52.020;5.670;2022-08-30T07:48:27;102009.50;;;23.42;48.07
69624;BME280;56843;52.020;5.670;2022-08-30T07:50:01;102007.22;;;23.55;47.62
69624;BME280;56843;52.020;5.670;2022-08-30T07:51:31;102014.25;;;23.56;46.45
69624;BME280;56843;52.020;5.670;2022-08-30T07:53:03;102011.56;;;23.63;45.93
69624;BME280;56843;52.020;5.670;2022-08-30T07:54:34;102033.06;;;23.78;46.25
69624;BME280;56843;52.020;5.670;2022-08-30T07:56:05;102032.06;;;24.07;45.69
69624;BME280;56843;52.020;5.670;2022-08-30T07:57:35;102021.19;;;24.32;44.88
69624;BME280;56843;52.020;5.670;2022-08-30T07:59:06;102029.03;;;24.41;44.27
69624;BME280;56843;52.020;5.670;2022-08-30T08:00:36;102033.34;;;24.49;44.29
69624;BME280;56843;52.020;5.670;2022-08-30T08:02:07;102026.75;;;24.60;43.73